createdAt,value
2022-11-23T00:01:36.715Z,96.50
2022-11-23T00:04:11.775Z,96.20
2022-11-23T00:06:41.059Z,96.30
2022-11-23T00:09:11.401Z,96.30
2022-11-23T00:11:39.192Z,96.10
2022-11-23T00:14:07.000Z,96.20
2022-11-23T00:16:34.826Z,96.10
2022-11-23T00:19:02.946Z,96.10
2022-11-23T00:21:33.040Z,95.80
2022-11-23T00:24:01.247Z,96.00
2022-11-23T00:26:29.283Z,95.90
2022-11-23T00:28:57.201Z,96.20
2022-11-23T00:31:27.972Z,95.80
2022-11-23T00:33:57.425Z,95.70
2022-11-23T00:36:27.485Z,95.50
2022-11-23T00:38:56.346Z,95.30
2022-11-23T00:41:27.095Z,94.80
2022-11-23T00:43:55.345Z,94.30
2022-11-23T00:46:26.626Z,94.00
2022-11-23T00:48:57.108Z,93.90
2022-11-23T00:51:32.238Z,93.40
2022-11-23T00:54:01.897Z,93.50
2022-11-23T00:56:31.257Z,93.20
2022-11-23T00:59:01.082Z,93.10
2022-11-23T01:01:36.957Z,93.40
2022-11-23T01:04:08.004Z,93.50
2022-11-23T01:06:40.077Z,93.70
2022-11-23T01:09:17.942Z,93.80
2022-11-23T01:11:46.270Z,92.80
2022-11-23T01:14:14.157Z,93.30
2022-11-23T01:16:42.514Z,93.30
2022-11-23T01:19:21.198Z,92.80
2022-11-23T01:21:51.643Z,93.20
2022-11-23T01:24:22.874Z,93.70
2022-11-23T01:26:55.231Z,93.80
2022-11-23T01:29:24.343Z,94.10
2022-11-23T01:31:52.307Z,93.30
2022-11-23T01:34:20.142Z,93.20
2022-11-23T01:36:47.875Z,93.30
2022-11-23T01:39:16.344Z,93.50
2022-11-23T01:41:46.759Z,92.90
2022-11-23T01:44:43.472Z,93.60
2022-11-23T01:47:11.399Z,92.50
2022-11-23T01:49:51.774Z,93.30
2022-11-23T01:52:26.156Z,93.30
2022-11-23T01:54:58.186Z,93.20
2022-11-23T01:57:32.706Z,93.30
2022-11-23T02:00:02.072Z,93.30
2022-11-23T02:02:47.869Z,93.30
2022-11-23T02:05:22.924Z,93.40
2022-11-23T02:07:51.384Z,93.50
2022-11-23T02:10:21.338Z,93.10
2022-11-23T02:12:49.152Z,93.50
2022-11-23T02:15:17.267Z,93.80
2022-11-23T02:17:46.083Z,93.90
2022-11-23T02:20:18.522Z,94.00
2022-11-23T02:23:04.623Z,94.40
2022-11-23T02:25:46.327Z,94.10
2022-11-23T02:28:26.903Z,94.20
2022-11-23T02:30:55.849Z,93.60
2022-11-23T02:33:25.552Z,93.80
2022-11-23T02:35:59.029Z,93.60
2022-11-23T02:38:32.118Z,93.70
2022-11-23T02:41:00.702Z,93.70
2022-11-23T02:43:28.557Z,93.40
2022-11-23T02:45:59.700Z,93.90
2022-11-23T02:48:27.548Z,93.70
2022-11-23T02:50:55.849Z,94.20
2022-11-23T02:53:25.138Z,94.00
2022-11-23T02:55:55.257Z,94.60
2022-11-23T02:58:25.028Z,94.30
2022-11-23T03:00:52.866Z,95.20
2022-11-23T03:03:20.771Z,95.20
2022-11-23T03:05:48.556Z,96.00
2022-11-23T03:08:16.523Z,96.30
2022-11-23T03:10:44.277Z,96.70
2022-11-23T03:13:12.780Z,97.00
2022-11-23T03:15:41.578Z,97.20
2022-11-23T03:18:10.669Z,97.40
2022-11-23T03:20:39.225Z,97.00
2022-11-23T03:23:07.007Z,96.60
2022-11-23T03:25:34.785Z,96.30
2022-11-23T03:28:04.810Z,96.40
2022-11-23T03:30:34.180Z,96.80
2022-11-23T03:33:04.221Z,96.30
2022-11-23T03:35:32.265Z,96.90
2022-11-23T03:38:23.387Z,97.20
2022-11-23T03:40:52.890Z,97.40
2022-11-23T03:43:33.558Z,97.80
2022-11-23T03:46:01.335Z,97.20
2022-11-23T03:48:29.126Z,97.00
2022-11-23T03:50:57.044Z,97.30
2022-11-23T03:53:25.371Z,97.30
2022-11-23T03:55:55.508Z,96.30
2022-11-23T03:58:25.312Z,96.70
2022-11-23T04:00:53.168Z,95.80
2022-11-23T04:03:21.145Z,95.80
2022-11-23T04:06:07.176Z,96.50
2022-11-23T04:08:58.973Z,95.40
2022-11-23T04:11:44.698Z,95.70
2022-11-23T04:14:12.583Z,96.00
2022-11-23T04:16:40.337Z,95.40
2022-11-23T04:19:08.447Z,95.20
2022-11-23T04:21:37.193Z,95.40
2022-11-23T04:24:05.835Z,95.50
2022-11-23T04:26:36.518Z,95.60
2022-11-23T04:29:04.567Z,95.60
2022-11-23T04:31:34.532Z,95.60
2022-11-23T04:34:11.396Z,95.80
2022-11-23T04:36:40.324Z,95.80
2022-11-23T04:39:12.647Z,95.90
2022-11-23T04:42:06.967Z,95.10
2022-11-23T04:44:35.499Z,95.30
2022-11-23T04:47:05.865Z,95.60
2022-11-23T04:49:37.293Z,95.20
2022-11-23T04:52:05.973Z,95.30
2022-11-23T04:54:38.824Z,94.50
2022-11-23T04:57:10.017Z,95.60
2022-11-23T04:59:39.364Z,95.20
2022-11-23T05:02:07.402Z,94.80
2022-11-23T05:04:48.901Z,94.80
2022-11-23T05:07:18.270Z,95.20
2022-11-23T05:09:52.720Z,94.20
2022-11-23T05:12:22.367Z,94.80
2022-11-23T05:14:51.204Z,94.20
2022-11-23T05:17:31.098Z,94.50
2022-11-23T05:19:59.149Z,94.40
2022-11-23T05:22:28.157Z,94.10
2022-11-23T05:24:56.072Z,93.60
2022-11-23T05:27:25.987Z,93.60
2022-11-23T05:29:53.910Z,93.90
2022-11-23T05:32:21.832Z,94.00
2022-11-23T05:34:50.089Z,93.70
2022-11-23T05:37:19.590Z,93.60
2022-11-23T05:39:54.139Z,92.80
2022-11-23T05:42:24.502Z,92.70
2022-11-23T05:44:55.618Z,92.80
2022-11-23T05:47:30.160Z,92.50
2022-11-23T05:49:58.189Z,91.80
2022-11-23T05:52:29.975Z,92.10
2022-11-23T05:54:58.690Z,91.60
2022-11-23T05:57:26.473Z,91.30
2022-11-23T05:59:54.343Z,91.60
2022-11-23T06:02:26.945Z,91.40
2022-11-23T06:05:00.819Z,90.80
2022-11-23T06:07:39.921Z,89.90
2022-11-23T06:10:12.382Z,90.20
2022-11-23T06:12:45.914Z,89.70
2022-11-23T06:15:18.350Z,89.30
2022-11-23T06:17:47.544Z,89.00
2022-11-23T06:20:20.255Z,89.10
2022-11-23T06:22:56.749Z,88.70
2022-11-23T06:25:26.264Z,88.70
2022-11-23T06:28:01.392Z,88.50
2022-11-23T06:30:37.018Z,88.70
2022-11-23T06:33:08.076Z,88.40
2022-11-23T06:36:00.068Z,88.60
2022-11-23T06:38:33.188Z,87.60
2022-11-23T06:41:09.052Z,88.30
2022-11-23T06:43:36.871Z,88.40
2022-11-23T06:46:06.921Z,88.10
2022-11-23T06:48:39.682Z,87.80
2022-11-23T06:51:08.578Z,88.00
2022-11-23T06:53:38.342Z,87.50
2022-11-23T06:56:08.959Z,87.70
2022-11-23T06:58:37.378Z,87.30
2022-11-23T07:01:11.055Z,87.20
2022-11-23T07:03:48.285Z,86.40
2022-11-23T07:06:23.240Z,86.70
2022-11-23T07:08:55.882Z,86.70
2022-11-23T07:11:50.017Z,86.20
2022-11-23T07:14:18.668Z,86.00
2022-11-23T07:16:48.857Z,86.20
2022-11-23T07:19:16.664Z,85.60
2022-11-23T07:21:45.994Z,85.50
2022-11-23T07:24:13.967Z,85.00
2022-11-23T07:26:42.172Z,85.70
2022-11-23T07:29:11.072Z,85.40
2022-11-23T07:31:39.131Z,85.70
2022-11-23T07:34:09.188Z,85.80
2022-11-23T07:36:37.246Z,85.20
2022-11-23T07:39:05.407Z,85.40
2022-11-23T07:41:33.597Z,85.30
2022-11-23T07:44:22.396Z,85.30
2022-11-23T07:46:55.762Z,84.80
2022-11-23T07:49:23.667Z,84.80
2022-11-23T07:51:51.476Z,84.80
2022-11-23T07:54:23.455Z,84.60
2022-11-23T07:56:51.592Z,84.30
2022-11-23T07:59:19.362Z,83.50
2022-11-23T08:01:51.186Z,83.50
2022-11-23T08:04:20.972Z,83.40
2022-11-23T08:06:48.755Z,83.70
2022-11-23T08:09:16.719Z,83.50
2022-11-23T08:11:44.532Z,83.60
2022-11-23T08:14:12.519Z,82.90
2022-11-23T08:16:40.313Z,83.00
2022-11-23T08:19:08.331Z,83.20
2022-11-23T08:21:36.193Z,82.60
2022-11-23T08:24:06.680Z,82.40
2022-11-23T08:26:34.680Z,82.80
2022-11-23T08:29:07.240Z,82.30
2022-11-23T08:31:35.735Z,82.20
2022-11-23T08:34:03.928Z,82.30
2022-11-23T08:36:31.977Z,82.80
2022-11-23T08:39:00.404Z,82.80
2022-11-23T08:41:28.626Z,82.10
2022-11-23T08:43:56.622Z,82.40
2022-11-23T08:46:25.029Z,82.60
2022-11-23T08:48:52.841Z,82.70
2022-11-23T08:51:23.189Z,82.40
2022-11-23T08:53:51.966Z,81.40
2022-11-23T08:56:20.203Z,81.10
2022-11-23T08:58:48.143Z,81.70
2022-11-23T09:01:17.535Z,81.50
2022-11-23T09:03:46.203Z,81.50
2022-11-23T09:06:14.083Z,81.40
2022-11-23T09:08:41.936Z,81.30
2022-11-23T09:11:14.463Z,81.50
2022-11-23T09:13:42.348Z,80.80
2022-11-23T09:16:10.648Z,81.20
2022-11-23T09:18:38.637Z,80.80
2022-11-23T09:21:06.588Z,79.70
2022-11-23T09:23:34.635Z,80.70
2022-11-23T09:26:05.012Z,81.10
2022-11-23T09:28:33.437Z,81.30
2022-11-23T09:31:04.751Z,80.60
2022-11-23T09:33:32.596Z,79.60
2022-11-23T09:36:03.433Z,80.00
2022-11-23T09:38:55.202Z,80.40
2022-11-23T09:42:00.636Z,80.20
2022-11-23T09:45:01.470Z,79.70
2022-11-23T09:48:05.762Z,80.10
2022-11-23T09:51:04.279Z,79.90
2022-11-23T09:54:04.211Z,79.20
2022-11-23T09:56:37.454Z,79.20
2022-11-23T09:59:34.976Z,79.40
2022-11-23T10:02:03.114Z,78.30
2022-11-23T10:04:35.577Z,78.60
2022-11-23T10:07:25.719Z,78.00
2022-11-23T10:10:24.338Z,76.80
2022-11-23T10:12:59.729Z,76.30
2022-11-23T10:15:38.141Z,76.60
2022-11-23T10:18:58.236Z,75.80
2022-11-23T10:22:27.783Z,75.40
2022-11-23T10:24:55.711Z,76.30
2022-11-23T10:27:25.242Z,76.30
2022-11-23T10:29:56.588Z,75.80
2022-11-23T10:32:35.153Z,75.90
2022-11-23T10:35:35.635Z,75.00
2022-11-23T10:38:20.326Z,74.20
2022-11-23T10:41:12.378Z,75.30
2022-11-23T10:44:02.907Z,75.60
2022-11-23T10:46:37.320Z,75.70
2022-11-23T10:49:26.228Z,74.50
2022-11-23T10:52:05.285Z,74.50
2022-11-23T10:54:46.128Z,74.60
2022-11-23T10:57:34.858Z,74.40
2022-11-23T11:00:16.176Z,73.30
2022-11-23T11:02:54.886Z,73.30
2022-11-23T11:08:35.929Z,73.50
2022-11-23T11:11:22.041Z,72.20
2022-11-23T11:13:50.047Z,71.80
2022-11-23T11:16:33.513Z,71.40
2022-11-23T11:19:21.220Z,71.30
2022-11-23T11:21:49.192Z,71.10
2022-11-23T11:24:26.206Z,71.60
2022-11-23T11:27:03.834Z,71.00
2022-11-23T11:29:38.989Z,70.90
2022-11-23T11:32:18.566Z,70.30
2022-11-23T11:35:26.007Z,69.70
2022-11-23T11:38:02.068Z,70.20
2022-11-23T11:40:45.312Z,69.50
2022-11-23T11:43:33.574Z,70.10
2022-11-23T11:46:29.142Z,68.80
2022-11-23T11:49:20.865Z,67.20
2022-11-23T11:52:15.132Z,67.50
2022-11-23T11:55:03.056Z,67.20
2022-11-23T11:57:43.659Z,66.40
2022-11-23T12:00:17.489Z,68.00
2022-11-23T12:03:16.270Z,68.30
2022-11-23T12:05:55.794Z,66.00
2022-11-23T12:08:33.839Z,68.30
2022-11-23T12:11:02.379Z,68.40
2022-11-23T12:13:35.266Z,67.40
2022-11-23T12:17:10.260Z,67.60
2022-11-23T12:19:54.769Z,66.60
2022-11-23T12:22:50.683Z,66.80
2022-11-23T12:25:41.974Z,63.70
2022-11-23T12:28:36.593Z,64.20
2022-11-23T12:31:31.458Z,65.10
2022-11-23T12:34:46.170Z,64.80
2022-11-23T12:37:44.759Z,62.00
2022-11-23T12:40:42.165Z,61.10
2022-11-23T12:43:36.776Z,60.30
2022-11-23T12:46:13.642Z,59.40
2022-11-23T12:49:09.561Z,59.40
2022-11-23T12:51:47.846Z,59.60
2022-11-23T12:55:15.007Z,58.30
2022-11-23T12:58:00.389Z,58.90
2022-11-23T13:00:36.367Z,60.20
2022-11-23T13:03:33.846Z,60.80
2022-11-23T13:06:27.709Z,59.30
2022-11-23T13:09:16.561Z,60.50
2022-11-23T13:11:53.061Z,60.60
2022-11-23T13:14:47.123Z,61.10
2022-11-23T13:17:58.081Z,60.80
2022-11-23T13:20:37.753Z,59.60
2022-11-23T13:23:06.928Z,61.60
2022-11-23T13:25:34.791Z,61.50
2022-11-23T13:28:31.034Z,59.90
2022-11-23T13:31:17.109Z,60.40
2022-11-23T13:33:48.786Z,57.60
2022-11-23T13:37:12.302Z,59.50
2022-11-23T13:40:59.571Z,57.90
2022-11-23T13:43:38.693Z,58.10
2022-11-23T13:46:31.617Z,58.50
2022-11-23T13:49:00.839Z,59.50
2022-11-23T13:51:35.001Z,58.40
2022-11-23T13:54:24.927Z,59.00
2022-11-23T13:57:05.081Z,56.80
2022-11-23T13:59:34.986Z,58.00
2022-11-23T14:02:08.871Z,58.00
2022-11-23T14:04:44.712Z,58.10
2022-11-23T14:07:43.635Z,57.30
2022-11-23T14:10:23.549Z,57.90
2022-11-23T14:13:12.424Z,57.40
2022-11-23T14:15:45.376Z,58.10
2022-11-23T14:18:50.324Z,59.40
2022-11-23T14:21:29.623Z,57.90
2022-11-23T14:24:28.991Z,59.00
2022-11-23T14:27:47.657Z,57.90
2022-11-23T14:30:59.792Z,58.00
2022-11-23T14:33:55.786Z,58.90
2022-11-23T14:36:51.708Z,59.30
2022-11-23T14:39:50.171Z,59.20
2022-11-23T14:42:23.058Z,59.50
2022-11-23T14:44:52.472Z,59.60
2022-11-23T14:47:29.940Z,59.80
2022-11-23T14:49:58.435Z,59.10
2022-11-23T14:52:37.106Z,59.90
2022-11-23T14:55:07.008Z,60.40
2022-11-23T14:57:44.810Z,60.60
2022-11-23T15:00:41.913Z,60.90
2022-11-23T15:03:49.319Z,60.90
2022-11-23T15:06:18.547Z,61.80
2022-11-23T15:08:57.537Z,61.80
2022-11-23T15:11:29.444Z,62.30
2022-11-23T15:14:03.499Z,62.80
2022-11-23T15:16:42.570Z,63.10
2022-11-23T15:19:28.563Z,63.20
2022-11-23T15:21:57.469Z,63.80
2022-11-23T15:24:27.228Z,64.00
2022-11-23T15:27:12.117Z,64.40
2022-11-23T15:29:40.993Z,64.70
2022-11-23T15:32:34.170Z,65.30
2022-11-23T15:35:07.927Z,65.60
2022-11-23T15:38:04.333Z,65.90
2022-11-23T15:40:36.739Z,66.20
2022-11-23T15:43:04.906Z,66.20
2022-11-23T15:45:41.734Z,66.10
2022-11-23T15:48:18.267Z,66.40
2022-11-23T15:51:05.510Z,66.20
2022-11-23T15:53:47.518Z,66.00
2022-11-23T15:56:31.423Z,66.30
2022-11-23T15:59:06.313Z,66.40
2022-11-23T16:01:34.080Z,66.50
2022-11-23T16:04:04.551Z,66.50
2022-11-23T16:06:42.280Z,66.80
2022-11-23T16:09:53.304Z,66.60
2022-11-23T16:12:34.055Z,67.00
2022-11-23T16:15:37.943Z,67.20
2022-11-23T16:18:31.976Z,66.50
2022-11-23T16:21:04.462Z,66.60
2022-11-23T16:24:04.221Z,66.40
2022-11-23T16:26:34.093Z,66.70
2022-11-23T16:29:02.478Z,66.70
2022-11-23T16:31:39.666Z,66.60
2022-11-23T16:34:17.764Z,66.50
2022-11-23T16:36:45.912Z,66.40
2022-11-23T16:39:14.820Z,66.60
2022-11-23T16:41:42.795Z,66.80
2022-11-23T16:44:10.613Z,67.70
2022-11-23T16:46:43.289Z,68.70
2022-11-23T16:49:23.658Z,69.20
2022-11-23T16:51:57.075Z,70.20
2022-11-23T16:54:25.761Z,70.90
2022-11-23T16:56:53.858Z,71.20
2022-11-23T16:59:23.788Z,71.60
2022-11-23T17:01:56.954Z,71.60
2022-11-23T17:04:26.407Z,72.20
2022-11-23T17:06:54.523Z,72.80
2022-11-23T17:09:22.313Z,73.70
2022-11-23T17:11:50.981Z,72.90
2022-11-23T17:14:20.647Z,73.70
2022-11-23T17:16:50.058Z,73.90
2022-11-23T17:19:20.642Z,74.60
2022-11-23T17:21:48.690Z,75.00
2022-11-23T17:24:16.549Z,76.20
2022-11-23T17:26:52.765Z,76.80
2022-11-23T17:29:21.401Z,77.60
2022-11-23T17:31:50.777Z,77.90
2022-11-23T17:34:18.608Z,78.20
2022-11-23T17:36:49.662Z,78.30
2022-11-23T17:39:24.580Z,79.00
2022-11-23T17:41:52.486Z,78.90
2022-11-23T17:44:20.795Z,79.30
2022-11-23T17:46:50.887Z,79.30
2022-11-23T17:49:20.211Z,80.50
2022-11-23T17:51:47.959Z,80.00
2022-11-23T17:54:15.856Z,80.30
2022-11-23T17:56:43.643Z,80.60
2022-11-23T17:59:11.514Z,81.80
2022-11-23T18:01:40.113Z,83.20
2022-11-23T18:04:20.295Z,83.60
2022-11-23T18:06:48.137Z,85.00
2022-11-23T18:09:15.912Z,85.60
2022-11-23T18:11:43.814Z,86.20
2022-11-23T18:14:11.604Z,86.40
2022-11-23T18:16:39.545Z,86.90
2022-11-23T18:19:07.615Z,87.00
2022-11-23T18:21:35.409Z,87.70
2022-11-23T18:24:04.836Z,88.30
2022-11-23T18:26:32.866Z,88.60
2022-11-23T18:29:00.645Z,89.30
2022-11-23T18:31:28.986Z,89.30
2022-11-23T18:33:56.934Z,90.70
2022-11-23T18:36:24.702Z,90.30
2022-11-23T18:38:52.522Z,90.70
2022-11-23T18:41:22.154Z,90.90
2022-11-23T18:43:50.376Z,90.60
2022-11-23T18:46:21.438Z,90.40
2022-11-23T18:48:50.398Z,90.60
2022-11-23T18:51:18.773Z,91.30
2022-11-23T18:53:47.923Z,90.70
2022-11-23T18:56:15.972Z,91.10
2022-11-23T18:58:45.789Z,91.40
2022-11-23T19:01:17.875Z,91.60
2022-11-23T19:03:48.839Z,91.80
2022-11-23T19:06:19.028Z,92.00
2022-11-23T19:08:50.837Z,92.00
2022-11-23T19:11:22.447Z,91.90
2022-11-23T19:13:55.856Z,92.10
2022-11-23T19:16:31.339Z,91.90
2022-11-23T19:19:05.363Z,92.40
2022-11-23T19:21:35.481Z,92.40
2022-11-23T19:24:04.220Z,93.10
2022-11-23T19:26:32.720Z,94.00
2022-11-23T19:29:00.658Z,94.10
2022-11-23T19:31:31.587Z,94.80
2022-11-23T19:34:10.482Z,95.50
2022-11-23T19:36:38.417Z,95.80
2022-11-23T19:39:08.327Z,96.10
2022-11-23T19:41:36.107Z,97.60
2022-11-23T19:44:04.636Z,98.10
2022-11-23T19:46:32.987Z,98.70
2022-11-23T19:49:01.006Z,99.20
2022-11-23T19:51:29.165Z,99.70
2022-11-23T19:53:57.719Z,99.90
2022-11-23T19:56:29.362Z,99.90
2022-11-23T19:59:01.565Z,99.90
2022-11-23T20:01:32.166Z,99.90
2022-11-23T20:04:08.321Z,99.90
2022-11-23T20:06:42.521Z,99.90
2022-11-23T20:09:19.478Z,99.90
2022-11-23T20:11:51.014Z,99.90
2022-11-23T20:14:19.773Z,99.90
2022-11-23T20:16:47.971Z,99.90
2022-11-23T20:19:15.981Z,99.90
2022-11-23T20:21:43.829Z,99.90
2022-11-23T20:24:13.877Z,99.90
2022-11-23T20:26:42.391Z,99.90
2022-11-23T20:29:10.776Z,99.90
2022-11-23T20:31:39.237Z,99.90
2022-11-23T20:34:09.995Z,99.90
2022-11-23T20:36:40.173Z,99.90
2022-11-23T20:39:10.919Z,99.90
2022-11-23T20:41:39.157Z,99.90
2022-11-23T20:44:13.408Z,99.90
2022-11-23T20:49:31.109Z,99.90
2022-11-23T20:51:59.822Z,99.90
2022-11-23T20:54:28.016Z,99.90
2022-11-23T20:56:58.057Z,99.90
2022-11-23T20:59:26.382Z,99.90
2022-11-23T21:01:54.263Z,99.90
2022-11-23T21:04:22.114Z,99.90
2022-11-23T21:06:49.836Z,99.90
2022-11-23T21:09:17.760Z,99.90
2022-11-23T21:12:04.211Z,99.90
2022-11-23T21:14:33.033Z,99.90
2022-11-23T21:17:01.175Z,99.90
2022-11-23T21:19:32.428Z,99.90
2022-11-23T21:22:07.874Z,99.90
2022-11-23T21:24:36.438Z,99.90
2022-11-23T21:27:07.992Z,99.90
2022-11-23T21:29:35.898Z,99.90
2022-11-23T21:32:04.198Z,99.90
2022-11-23T21:34:32.749Z,99.90
2022-11-23T21:37:01.065Z,99.90
2022-11-23T21:39:32.369Z,99.90
2022-11-23T21:42:00.166Z,99.90
2022-11-23T21:44:27.974Z,99.90
2022-11-23T21:46:55.998Z,99.90
2022-11-23T21:49:25.684Z,99.90
2022-11-23T21:51:53.478Z,99.90
2022-11-23T21:54:21.215Z,99.90
2022-11-23T21:56:49.043Z,99.90
2022-11-23T21:59:16.827Z,99.90
2022-11-23T22:01:44.589Z,99.90
2022-11-23T22:04:15.730Z,99.90
2022-11-23T22:06:45.287Z,99.90
2022-11-23T22:09:13.988Z,99.90
2022-11-23T22:11:43.788Z,99.90
2022-11-23T22:14:15.140Z,99.90
2022-11-23T22:16:54.115Z,99.90
2022-11-23T22:19:21.929Z,99.90
2022-11-23T22:21:49.743Z,99.90
2022-11-23T22:24:20.175Z,99.90
2022-11-23T22:26:48.209Z,99.90
2022-11-23T22:29:16.364Z,99.90
2022-11-23T22:31:44.466Z,99.90
2022-11-23T22:34:13.908Z,99.90
2022-11-23T22:36:42.485Z,99.90
2022-11-23T22:39:10.363Z,99.90
2022-11-23T22:41:38.696Z,99.90
2022-11-23T22:44:09.608Z,99.90
2022-11-23T22:46:38.985Z,99.90
2022-11-23T22:49:07.383Z,99.90
2022-11-23T22:51:35.248Z,99.90
2022-11-23T22:54:03.688Z,99.90
2022-11-23T22:56:31.850Z,99.90
2022-11-23T22:59:00.217Z,99.90
2022-11-23T23:01:30.844Z,99.90
2022-11-23T23:04:01.769Z,99.90
2022-11-23T23:06:34.832Z,99.90
2022-11-23T23:09:06.260Z,99.90
2022-11-23T23:11:35.619Z,99.90
2022-11-23T23:14:03.884Z,99.90
2022-11-23T23:16:32.017Z,99.90
2022-11-23T23:18:59.952Z,99.90
2022-11-23T23:21:29.514Z,99.90
2022-11-23T23:24:01.204Z,99.90
2022-11-23T23:26:30.067Z,99.90
2022-11-23T23:29:00.556Z,99.90
2022-11-23T23:31:30.038Z,99.90
2022-11-23T23:33:59.939Z,99.90
2022-11-23T23:36:28.109Z,99.90
2022-11-23T23:38:57.522Z,99.90
2022-11-23T23:41:25.332Z,99.90
2022-11-23T23:43:53.134Z,99.90
2022-11-23T23:46:21.073Z,99.90
2022-11-23T23:48:48.885Z,99.90
2022-11-23T23:51:20.053Z,99.90
2022-11-23T23:53:48.703Z,99.90
2022-11-23T23:56:22.311Z,99.90
2022-11-23T23:58:51.095Z,99.90
